Main page
METAR-TAF:

METAR-TAF

Airports :

Diyarbakır Airport

Diyarbakır, Turkey

latitude: 37-53N, longitude: 040-11E, elevation: 686 m

Current weather observation

The report was made 25 minutes ago, at 19:50 UTC
Wind 16 kt from the Northwest
Temperature 32°C
Humidity 29%
Pressure 1000 hPa
Visibility 10 km or more
no clouds below 1500 m and no cumulonimbus

METAR: LTCC 191950Z 31016KT CAVOK 32/12 Q1000 NOSIG RMK RWY16 30016KT 270V350 SKC

Time: 23:15 (20:15 UTC)

Forecast

The report was made 3 hours and 35 minutes ago, at 16:40 UTC
Forecast valid from 19 at 18 UTC to 20 at 18 UTC
Wind 13 kt from the North
Visibility 10 km or more
no clouds below 1500 m and no cumulonimbus
Becoming
from 19 at 20 UTC to 19 at 22 UTC
Wind 8 kt from the West/Northwest

TAF: LTCC 191640Z 1918/2018 35013KT CAVOK BECMG 1920/1922 29008KT

Weather observations and forecasts of more than 4000 airports (METAR and TAF reports).

The available stations are represented by yellow and red dots on the map.

Hover mouse over dot to see the name of the station.

Then click to see weather observations and forecasts.

To change the map : click on the green buttons with a black cross to zoom in, on the green button with a dash to zoom out, or on the green arrows for adjacent maps.


METAR-TAF: